Latest Weather Observations for Kununurra Airport

IDW60801

Issued at 9:33 pm WST Saturday 29 April 2017 (issued every 30 minutes, with the page automatically refreshed every 10 minutes)

About weather observations | Map of weather stations | Latest weather observations for WA | Other Formats
Station Details ID: 002056 Name: KUNUNURRA AERO Lat: -15.78 Lon: 128.71 Height: 44.0 m
Data from the previous 72 hours. | See also: Recent months at Kununurra Airport
Date/Time
WST
Temp
°C
App
Temp
°C
Dew
Point
°C
Rel
Hum
%
Delta-T
°C
Wind Press
QNH
hPa
Press
MSL
hPa
Rain since
9am
mm
Dir  Spd
km/h
Gust
km/h
Spd
kts
Gust
kts
29/09:30pm 21.9 23.3 14.5 63 4.3 CALM 0 0 0 0 1015.2 1015.0 0.0
29/09:00pm 21.6 22.9 14.0 62 4.4 CALM 0 0 0 0 1015.1 1014.9 0.0
29/08:30pm 20.9 22.0 13.6 63 4.2 CALM 0 0 0 0 1015.1 1014.9 0.0
29/08:00pm 21.7 22.2 12.8 57 5.1 SE 2 7 1 4 1015.0 1014.8 0.0
29/07:30pm 21.8 21.4 12.4 55 5.3 SSE 6 7 3 4 1014.9 1014.7 0.0
29/07:00pm 22.6 22.4 13.1 55 5.5 SSE 6 9 3 5 1014.8 1014.6 0.0
29/06:30pm 23.1 22.6 12.1 50 6.2 SSE 6 7 3 4 1014.5 1014.2 0.0
29/06:00pm 24.5 23.1 10.8 42 7.6 SSE 9 11 5 6 1014.1 1013.8 0.0
29/05:30pm 26.4 24.3 8.4 32 9.7 SE 9 11 5 6 1014.0 1013.7 0.0
29/05:00pm 26.9 24.8 8.4 31 10.0 ESE 9 11 5 6 1013.7 1013.4 0.0
29/04:30pm 28.2 26.0 8.0 28 11.0 ESE 9 13 5 7 1013.4 1013.1 0.0
29/04:00pm 29.6 26.4 6.9 24 12.2 ESE 13 19 7 10 1013.0 1012.7 0.0
29/03:30pm 29.8 27.2 7.7 25 12.0 SE 11 17 6 9 1012.9 1012.6 0.0
29/03:00pm 29.5 26.2 6.2 23 12.4 SE 13 19 7 10 1012.8 1012.5 0.0
29/02:30pm 29.8 25.8 6.5 23 12.4 ESE 17 22 9 12 1012.8 1012.5 0.0
29/02:00pm 29.2 24.8 4.6 21 12.7 ESE 17 26 9 14 1012.9 1012.6 0.0
29/01:30pm 30.4 25.2 5.6 21 13.1 E 22 28 12 15 1012.9 1012.6 0.0
29/01:00pm 30.1 26.6 7.3 24 12.4 ESE 15 32 8 17 1012.9 1012.6 0.0
29/12:30pm 29.7 24.8 5.1 21 12.8 SE 20 30 11 16 1013.1 1012.8 0.0
29/12:00pm 29.2 24.4 4.6 21 12.7 ESE 19 26 10 14 1013.5 1013.2 0.0
29/11:30am 29.6 24.9 5.0 21 12.8 SE 19 24 10 13 1013.9 1013.6 0.0
29/11:00am 28.7 23.9 5.5 23 12.1 ESE 20 30 11 16 1014.4 1014.1 0.0
29/10:30am 27.8 21.6 4.2 22 12.0 ESE 26 33 14 18 1014.7 1014.5 0.0
29/10:00am 27.3 20.5 3.1 21 12.0 ESE 28 35 15 19 1015.3 1015.1 0.0
29/09:30am 27.0 21.0 3.5 22 11.7 ESE 24 33 13 18 1015.9 1015.7 0.0
29/09:00am 26.4 20.6 4.2 24 11.1 ESE 24 30 13 16 1016.2 1016.0 0.0
29/08:30am 26.3 20.7 5.3 26 10.8 ESE 24 30 13 16 1016.3 1016.1 0.0
29/08:00am 25.5 20.0 4.0 25 10.7 ESE 22 33 12 18 1016.2 1016.0 0.0
29/07:30am 24.8 18.9 4.0 26 10.3 ESE 24 30 13 16 1016.1 1015.9 0.0
29/07:00am 24.1 20.7 5.9 31 9.3 SSE 13 17 7 9 1015.8 1015.6 0.0
29/06:30am 23.6 20.1 5.5 31 9.1 SE 13 15 7 8 1015.8 1015.6 0.0
29/06:00am 23.3 18.1 3.3 27 9.7 SE 20 28 11 15 1015.2 1015.0 0.0
29/05:30am 22.4 18.7 4.5 31 8.8 SE 13 19 7 10 1014.9 1014.7 0.0
29/05:00am 22.1 19.4 5.5 34 8.3 SSE 9 11 5 6 1014.6 1014.3 0.0
29/04:30am 22.0 19.8 6.3 36 8.0 SSW 7 11 4 6 1014.2 1013.9 0.0
29/04:00am 21.3 18.9 6.8 39 7.4 SSW 9 11 5 6 1013.6 1013.3 0.0
29/03:30am 23.1 19.5 5.1 31 9.0 SSE 13 17 7 9 1013.3 1013.0 0.0
29/03:00am 22.8 19.3 5.3 32 8.8 S 13 17 7 9 1013.3 1013.0 0.0
29/02:30am 23.3 19.7 5.2 31 9.1 S 13 20 7 11 1013.3 1013.0 0.0
29/02:00am 24.0 19.5 4.4 28 9.7 SSE 17 26 9 14 1013.3 1013.0 0.0
29/01:30am 25.0 20.0 3.6 25 10.5 SE 19 28 10 15 1013.4 1013.1 0.0
29/01:00am 25.2 21.1 4.3 26 10.4 SE 15 24 8 13 1013.9 1013.6 0.0
29/12:30am 25.5 21.7 4.0 25 10.7 SE 13 24 7 13 1014.2 1013.9 0.0
29/12:00am 23.9 21.7 6.2 32 9.1 SSE 7 17 4 9 1014.7 1014.5 0.0
 
Date/Time
WST
Temp
°C
App
Temp
°C
Dew
Point
°C
Rel
Hum
%
Delta-T
°C
Wind Press
QNH
hPa
Press
MSL
hPa
Rain since
9am
mm
Dir  Spd
km/h
Gust
km/h
Spd
kts
Gust
kts
28/11:30pm 22.4 20.8 8.9 42 7.2 SSW 7 9 4 5 1015.0 1014.8 0.0
28/11:00pm 24.3 21.9 7.0 33 9.0 SSE 9 11 5 6 1015.1 1014.9 0.0
28/10:30pm 24.6 21.5 7.3 33 9.1 S 13 15 7 8 1015.2 1015.0 0.0
28/10:00pm 23.6 22.3 9.9 42 7.5 S 7 11 4 6 1015.4 1015.2 0.0
28/09:30pm 24.4 22.8 10.3 41 7.8 SSE 9 11 5 6 1015.7 1015.5 0.0
28/09:00pm 22.9 22.6 12.8 53 5.8 WSW 6 7 3 4 1015.8 1015.6 0.0
28/08:30pm 24.3 23.3 10.9 43 7.5 S 7 11 4 6 1015.9 1015.7 0.0
28/08:00pm 25.2 23.2 8.7 35 8.9 SSE 9 15 5 8 1015.7 1015.5 0.0
28/07:30pm 23.7 24.1 11.4 46 6.9 CALM 0 2 0 1 1015.6 1015.4 0.0
28/07:00pm 23.6 22.7 11.3 46 6.9 S 7 9 4 5 1015.4 1015.2 0.0
28/06:30pm 25.8 23.8 8.8 34 9.2 SSE 9 11 5 6 1015.2 1015.0 0.0
28/06:00pm 26.3 24.1 7.8 31 9.9 SSE 9 13 5 7 1014.9 1014.7 0.0
28/05:30pm 26.6 24.3 7.6 30 10.2 SE 9 15 5 8 1014.7 1014.5 0.0
28/05:00pm 27.2 23.6 6.6 27 10.8 SE 15 20 8 11 1014.3 1014.0 0.0
28/04:30pm 26.9 24.4 8.4 31 10.0 SE 11 13 6 7 1014.2 1013.9 0.0
28/04:00pm 27.5 25.4 8.4 30 10.4 ESE 9 11 5 6 1013.8 1013.5 0.0
28/03:30pm 28.2 24.6 6.9 26 11.3 SE 15 19 8 10 1013.5 1013.2 0.0
28/03:00pm 28.4 24.9 7.1 26 11.4 ESE 15 22 8 12 1013.5 1013.2 0.0
28/02:30pm 28.5 24.0 7.1 26 11.5 ESE 20 24 11 13 1013.2 1012.9 0.0
28/02:00pm 29.0 25.8 7.0 25 11.8 SE 13 20 7 11 1013.3 1013.0 0.0
28/01:30pm 29.2 25.1 7.7 26 11.7 SE 19 24 10 13 1013.4 1013.1 0.0
28/01:00pm 28.8 24.3 6.2 24 11.9 SE 19 26 10 14 1013.6 1013.3 0.0
28/12:30pm 29.1 24.5 6.5 24 12.0 SE 20 28 11 15 1013.9 1013.6 0.0
28/12:00pm 28.3 22.7 5.2 23 12.0 SE 24 35 13 19 1014.4 1014.1 0.0
28/11:30am 28.5 23.8 6.0 24 11.8 SE 20 26 11 14 1015.2 1015.0 0.0
28/11:00am 27.0 22.1 5.3 25 11.2 SE 20 26 11 14 1015.9 1015.7 0.0
28/10:30am 26.4 21.9 5.9 27 10.6 SE 19 26 10 14 1016.5 1016.3 0.0
28/10:00am 26.2 21.2 6.3 28 10.4 SE 22 32 12 17 1016.7 1016.5 0.0
28/09:30am 25.3 20.1 5.5 28 10.1 SE 22 35 12 19 1016.9 1016.7 0.0
28/09:00am 24.8 20.2 5.6 29 9.8 ESE 19 26 10 14 1017.1 1016.9 0.0
28/08:30am 24.5 18.9 5.3 29 9.7 ESE 24 35 13 19 1016.9 1016.7 0.0
28/08:00am 24.7 19.2 6.0 30 9.6 ESE 24 35 13 19 1016.7 1016.5 0.0
28/07:30am 24.7 20.0 6.0 30 9.6 SE 20 30 11 16 1016.7 1016.5 0.0
28/07:00am 24.7 20.1 6.4 31 9.5 SE 20 35 11 19 1016.3 1016.1 0.0
28/06:30am 24.5 20.6 7.2 33 9.1 SE 17 24 9 13 1015.9 1015.7 0.0
28/06:00am 24.5 21.6 8.0 35 8.8 SE 13 24 7 13 1015.4 1015.2 0.0
28/05:30am 25.0 21.6 7.6 33 9.2 SE 15 26 8 14 1014.8 1014.6 0.0
28/05:00am 24.9 21.6 8.0 34 9.0 SSE 15 20 8 11 1014.3 1014.0 0.0
28/04:30am 25.4 21.4 8.4 34 9.1 SE 19 30 10 16 1014.0 1013.7 0.0
28/04:00am 25.8 22.2 8.3 33 9.4 SE 17 24 9 13 1013.8 1013.5 0.0
28/03:30am 26.1 22.2 8.6 33 9.5 ESE 19 30 10 16 1013.7 1013.4 0.0
28/03:00am 26.1 22.3 9.0 34 9.3 ESE 19 32 10 17 1013.7 1013.4 0.0
28/02:30am 26.4 22.3 8.8 33 9.6 SE 20 30 11 16 1013.5 1013.2 0.0
28/02:00am 26.1 23.0 9.0 34 9.3 SSE 15 26 8 14 1013.3 1013.0 0.0
28/01:30am 26.3 23.7 9.2 34 9.4 SSE 13 20 7 11 1013.3 1013.0 0.0
28/01:00am 26.9 23.5 9.3 33 9.7 SE 17 26 9 14 1013.4 1013.1 0.0
28/12:30am 27.1 23.2 9.5 33 9.7 SE 20 30 11 16 1013.5 1013.2 0.0
28/12:00am 27.9 22.7 8.7 30 10.5 SE 26 39 14 21 1013.5 1013.2 0.0
 
Date/Time
WST
Temp
°C
App
Temp
°C
Dew
Point
°C
Rel
Hum
%
Delta-T
°C
Wind Press
QNH
hPa
Press
MSL
hPa
Rain since
9am
mm
Dir  Spd
km/h
Gust
km/h
Spd
kts
Gust
kts
27/11:30pm 28.0 23.3 9.3 31 10.4 SE 24 32 13 17 1013.6 1013.3 0.0
27/11:00pm 27.8 23.9 9.6 32 10.1 SE 20 28 11 15 1013.9 1013.6 0.0
27/10:30pm 28.2 24.5 9.5 31 10.4 SE 19 30 10 16 1014.0 1013.7 0.0
27/10:00pm 28.0 24.9 10.2 33 10.0 SE 17 24 9 13 1014.0 1013.7 0.0
27/09:30pm 28.1 24.8 10.8 34 9.8 SE 19 24 10 13 1014.2 1013.9 0.0
27/09:00pm 28.0 25.1 11.1 35 9.6 SE 17 24 9 13 1014.3 1014.0 0.0
27/08:30pm 28.1 25.3 11.2 35 9.7 SE 17 20 9 11 1014.3 1014.0 0.0
27/08:00pm 27.8 25.9 11.8 37 9.2 SSE 13 19 7 10 1014.4 1014.1 0.0
27/07:30pm 27.5 26.0 13.1 41 8.5 SSE 13 15 7 8 1014.0 1013.7 0.0
27/07:00pm 27.4 26.9 13.7 43 8.1 SSE 9 13 5 7 1013.4 1013.1 0.0
27/06:30pm 28.4 28.3 13.9 41 8.7 SE 7 11 4 6 1012.9 1012.6 0.0
27/06:00pm 28.0 26.8 13.9 42 8.4 ESE 13 15 7 8 1012.6 1012.3 0.0
27/05:30pm 28.3 27.4 13.8 41 8.7 ESE 11 15 6 8 1012.1 1011.8 0.0
27/05:00pm 29.9 28.4 13.2 36 9.9 ESE 13 22 7 12 1011.8 1011.5 0.0
27/04:30pm 30.5 28.8 13.7 35 10.1 ESE 15 20 8 11 1011.3 1011.0 0.0
27/04:00pm 31.3 29.2 13.6 34 10.7 ESE 17 20 9 11 1011.1 1010.8 0.0
27/03:30pm 31.8 29.3 13.5 32 11.0 ESE 19 24 10 13 1011.1 1010.8 0.0
27/03:00pm 32.3 29.4 14.0 33 11.1 ESE 22 28 12 15 1011.2 1010.9 0.0
27/02:30pm 32.5 30.1 13.7 32 11.4 SE 19 26 10 14 1011.2 1010.9 0.0
27/02:00pm 32.5 29.7 13.2 31 11.6 SE 20 26 11 14 1011.4 1011.1 0.0
27/01:30pm 32.4 29.9 13.6 32 11.4 SE 19 28 10 15 1011.7 1011.4 0.0
27/01:00pm 32.7 30.0 13.4 31 11.7 SE 20 28 11 15 1012.1 1011.8 0.0
27/12:30pm 31.9 29.1 13.2 32 11.2 SE 20 26 11 14 1012.5 1012.2 0.0
27/12:00pm 32.4 30.2 15.0 35 10.8 SE 20 30 11 16 1012.9 1012.6 0.0
27/11:30am 31.2 28.3 13.0 33 10.9 ESE 20 30 11 16 1013.6 1013.3 0.0
27/11:00am 31.4 28.2 13.2 33 10.9 SE 22 35 12 19 1014.0 1013.7 0.0
27/10:30am 30.9 27.0 13.2 34 10.6 SSE 26 37 14 20 1014.4 1014.1 0.0
27/10:00am 30.4 27.2 13.2 35 10.3 SE 22 33 12 18 1014.8 1014.6 0.0
27/09:30am 29.3 25.7 13.1 37 9.6 SE 24 35 13 19 1015.4 1015.2 0.0
27/09:00am 29.9 26.1 13.6 36 9.8 SE 26 33 14 18 1015.6 1015.4 0.0
27/08:30am 29.2 25.7 13.4 38 9.4 SE 24 33 13 18 1015.4 1015.2 0.0
27/08:00am 28.8 26.2 13.9 40 8.9 ESE 20 28 11 15 1015.1 1014.9 0.0
27/07:30am 28.0 25.3 14.6 44 8.1 SE 22 32 12 17 1014.9 1014.7 0.0
27/07:00am 27.8 27.1 16.4 50 7.1 SSE 15 22 8 12 1014.8 1014.6 0.0
27/06:30am 27.6 25.7 16.6 51 6.8 SE 22 30 12 16 1014.2 1013.9 0.0
27/06:00am 27.6 26.3 17.2 53 6.5 SE 20 32 11 17 1013.6 1013.3 0.0
27/05:30am 28.2 25.7 17.1 51 7.0 SE 26 35 14 19 1013.2 1012.9 0.0
27/05:00am 27.4 27.3 17.8 55 6.1 SSE 15 20 8 11 1012.6 1012.3 0.0
27/04:30am 28.1 27.9 17.6 53 6.6 SE 15 22 8 12 1012.0 1011.7 0.0
27/04:00am 28.6 28.1 17.8 52 6.9 SE 17 24 9 13 1011.6 1011.3 0.0
27/03:30am 28.9 28.4 17.7 50 7.1 SE 17 24 9 13 1011.6 1011.3 0.0
27/03:00am 29.0 28.5 17.8 50 7.1 ESE 17 20 9 11 1011.3 1011.0 0.0
27/02:30am 29.3 29.2 17.8 50 7.3 SE 15 20 8 11 1011.2 1010.9 0.0
27/02:00am 28.5 29.2 18.0 53 6.7 SSE 11 17 6 9 1011.1 1010.8 0.0
27/01:30am 27.7 28.6 18.4 57 5.9 S 11 17 6 9 1011.2 1010.9 0.0
27/01:00am 28.8 29.5 18.0 52 6.9 SSE 11 15 6 8 1011.2 1010.9 0.0
27/12:30am 29.1 29.8 17.9 50 7.1 SSE 11 15 6 8 1011.1 1010.8 0.0
27/12:00am 26.8 28.5 18.6 60 5.2 ESE 7 9 4 5 1011.4 1011.1 0.0
 
Date/Time
WST
Temp
°C
App
Temp
°C
Dew
Point
°C
Rel
Hum
%
Delta-T
°C
Wind Press
QNH
hPa
Press
MSL
hPa
Rain since
9am
mm
Dir  Spd
km/h
Gust
km/h
Spd
kts
Gust
kts
26/11:30pm 28.9 29.9 17.7 50 7.1 SE 9 11 5 6 1011.5 1011.2 0.0
26/11:00pm 26.0 28.8 19.6 68 4.1 SE 4 11 2 6 1011.8 1011.5 0.0
26/10:30pm 25.4 29.4 20.6 75 3.1 CALM 0 0 0 0 1011.9 1011.6 0.0
26/10:00pm 26.3 30.1 20.2 69 4.0 CALM 0 0 0 0 1012.1 1011.8 0.0

Other Formats:

Comma delimited format used in spreadsheet applications
http://www.bom.gov.au/fwo/IDW60801/IDW60801.94216.axf

JavaScript Object Notation format (JSON) in row-major order
http://www.bom.gov.au/fwo/IDW60801/IDW60801.94216.json